sensor_id;sensor_type;location;lat;lon;timestamp;P1;durP1;ratioP1;P2;durP2;ratioP2
75818;SDS011;64453;51.944;9.796;2023-04-01T00:00:12;3.70;;;1.10;;
75818;SDS011;64453;51.944;9.796;2023-04-01T00:02:40;1.70;;;0.90;;
75818;SDS011;64453;51.944;9.796;2023-04-01T00:05:08;2.30;;;1.00;;
75818;SDS011;64453;51.944;9.796;2023-04-01T00:07:36;3.30;;;1.13;;
75818;SDS011;64453;51.944;9.796;2023-04-01T00:10:07;1.47;;;1.07;;
75818;SDS011;64453;51.944;9.796;2023-04-01T00:12:38;1.83;;;0.70;;
75818;SDS011;64453;51.944;9.796;2023-04-01T00:15:07;1.70;;;0.97;;
75818;SDS011;64453;51.944;9.796;2023-04-01T00:17:37;1.37;;;0.67;;
75818;SDS011;64453;51.944;9.796;2023-04-01T00:20:05;2.20;;;1.00;;
75818;SDS011;64453;51.944;9.796;2023-04-01T00:22:34;2.13;;;1.20;;
75818;SDS011;64453;51.944;9.796;2023-04-01T00:25:02;0.60;;;0.53;;
75818;SDS011;64453;51.944;9.796;2023-04-01T00:27:31;1.63;;;0.80;;
75818;SDS011;64453;51.944;9.796;2023-04-01T00:29:58;1.20;;;0.70;;
75818;SDS011;64453;51.944;9.796;2023-04-01T00:32:27;1.73;;;0.90;;
75818;SDS011;64453;51.944;9.796;2023-04-01T00:34:55;1.20;;;0.73;;
75818;SDS011;64453;51.944;9.796;2023-04-01T00:37:24;0.87;;;0.60;;
75818;SDS011;64453;51.944;9.796;2023-04-01T00:39:51;2.60;;;0.80;;
75818;SDS011;64453;51.944;9.796;2023-04-01T00:42:19;1.17;;;0.87;;
75818;SDS011;64453;51.944;9.796;2023-04-01T00:44:49;0.53;;;0.47;;
75818;SDS011;64453;51.944;9.796;2023-04-01T00:47:18;2.30;;;0.50;;
75818;SDS011;64453;51.944;9.796;2023-04-01T00:49:48;1.63;;;0.80;;
75818;SDS011;64453;51.944;9.796;2023-04-01T00:52:17;1.47;;;0.70;;
75818;SDS011;64453;51.944;9.796;2023-04-01T00:54:49;0.90;;;0.80;;
75818;SDS011;64453;51.944;9.796;2023-04-01T00:57:27;1.27;;;0.70;;
75818;SDS011;64453;51.944;9.796;2023-04-01T01:00:03;1.07;;;0.80;;
75818;SDS011;64453;51.944;9.796;2023-04-01T01:02:34;0.80;;;0.67;;
75818;SDS011;64453;51.944;9.796;2023-04-01T01:05:03;2.87;;;1.10;;
75818;SDS011;64453;51.944;9.796;2023-04-01T01:07:32;4.00;;;1.47;;
75818;SDS011;64453;51.944;9.796;2023-04-01T01:10:12;2.03;;;0.67;;
75818;SDS011;64453;51.944;9.796;2023-04-01T01:12:46;1.13;;;0.73;;
75818;SDS011;64453;51.944;9.796;2023-04-01T01:15:25;1.00;;;0.73;;
75818;SDS011;64453;51.944;9.796;2023-04-01T01:17:57;1.43;;;0.80;;
75818;SDS011;64453;51.944;9.796;2023-04-01T01:23:57;3.07;;;1.20;;
75818;SDS011;64453;51.944;9.796;2023-04-01T01:26:50;1.50;;;0.80;;
75818;SDS011;64453;51.944;9.796;2023-04-01T01:29:33;1.33;;;0.97;;
75818;SDS011;64453;51.944;9.796;2023-04-01T01:32:19;1.30;;;0.80;;
75818;SDS011;64453;51.944;9.796;2023-04-01T01:35:18;2.90;;;1.00;;
75818;SDS011;64453;51.944;9.796;2023-04-01T01:37:51;2.20;;;1.10;;
75818;SDS011;64453;51.944;9.796;2023-04-01T01:40:22;1.37;;;0.70;;
75818;SDS011;64453;51.944;9.796;2023-04-01T01:42:54;1.70;;;1.10;;
75818;SDS011;64453;51.944;9.796;2023-04-01T01:45:26;1.43;;;0.80;;
75818;SDS011;64453;51.944;9.796;2023-04-01T01:47:55;2.63;;;1.07;;
75818;SDS011;64453;51.944;9.796;2023-04-01T01:50:25;1.80;;;1.07;;
75818;SDS011;64453;51.944;9.796;2023-04-01T01:53:00;0.97;;;0.87;;
75818;SDS011;64453;51.944;9.796;2023-04-01T01:55:30;1.83;;;0.90;;
75818;SDS011;64453;51.944;9.796;2023-04-01T01:58:01;1.30;;;1.20;;
75818;SDS011;64453;51.944;9.796;2023-04-01T02:00:35;1.43;;;1.27;;
75818;SDS011;64453;51.944;9.796;2023-04-01T02:03:02;1.30;;;1.07;;
75818;SDS011;64453;51.944;9.796;2023-04-01T02:05:32;1.17;;;1.07;;
75818;SDS011;64453;51.944;9.796;2023-04-01T02:08:01;1.30;;;1.20;;
75818;SDS011;64453;51.944;9.796;2023-04-01T02:10:34;1.47;;;1.10;;
75818;SDS011;64453;51.944;9.796;2023-04-01T02:13:05;3.07;;;1.00;;
75818;SDS011;64453;51.944;9.796;2023-04-01T02:15:37;1.23;;;0.90;;
75818;SDS011;64453;51.944;9.796;2023-04-01T02:18:10;1.47;;;0.90;;
75818;SDS011;64453;51.944;9.796;2023-04-01T02:20:39;2.33;;;0.90;;
75818;SDS011;64453;51.944;9.796;2023-04-01T02:23:08;1.80;;;1.17;;
75818;SDS011;64453;51.944;9.796;2023-04-01T02:25:37;0.70;;;0.70;;
75818;SDS011;64453;51.944;9.796;2023-04-01T02:28:04;1.40;;;1.10;;
75818;SDS011;64453;51.944;9.796;2023-04-01T02:30:34;0.90;;;0.70;;
75818;SDS011;64453;51.944;9.796;2023-04-01T02:33:05;1.00;;;0.77;;
75818;SDS011;64453;51.944;9.796;2023-04-01T02:35:34;1.40;;;0.80;;
75818;SDS011;64453;51.944;9.796;2023-04-01T02:38:04;1.63;;;0.93;;
75818;SDS011;64453;51.944;9.796;2023-04-01T02:40:42;1.13;;;0.70;;
75818;SDS011;64453;51.944;9.796;2023-04-01T02:43:13;1.23;;;0.90;;
75818;SDS011;64453;51.944;9.796;2023-04-01T02:45:41;0.73;;;0.60;;
75818;SDS011;64453;51.944;9.796;2023-04-01T02:48:08;1.13;;;0.77;;
75818;SDS011;64453;51.944;9.796;2023-04-01T02:50:36;0.73;;;0.53;;
75818;SDS011;64453;51.944;9.796;2023-04-01T02:53:04;1.13;;;1.03;;
75818;SDS011;64453;51.944;9.796;2023-04-01T02:55:31;0.90;;;0.50;;
75818;SDS011;64453;51.944;9.796;2023-04-01T02:57:59;1.77;;;0.80;;
75818;SDS011;64453;51.944;9.796;2023-04-01T03:00:26;1.43;;;0.80;;
75818;SDS011;64453;51.944;9.796;2023-04-01T03:02:54;0.70;;;0.70;;
75818;SDS011;64453;51.944;9.796;2023-04-01T03:05:21;1.10;;;0.70;;
75818;SDS011;64453;51.944;9.796;2023-04-01T03:07:49;1.50;;;0.60;;
75818;SDS011;64453;51.944;9.796;2023-04-01T03:10:18;1.10;;;0.60;;
75818;SDS011;64453;51.944;9.796;2023-04-01T03:12:45;1.77;;;0.80;;
75818;SDS011;64453;51.944;9.796;2023-04-01T03:15:12;0.97;;;0.70;;
75818;SDS011;64453;51.944;9.796;2023-04-01T03:17:41;1.60;;;0.50;;
75818;SDS011;64453;51.944;9.796;2023-04-01T03:20:12;1.70;;;0.90;;
75818;SDS011;64453;51.944;9.796;2023-04-01T03:22:40;1.27;;;0.70;;
75818;SDS011;64453;51.944;9.796;2023-04-01T03:25:07;1.57;;;0.80;;
75818;SDS011;64453;51.944;9.796;2023-04-01T03:27:38;1.10;;;0.70;;
75818;SDS011;64453;51.944;9.796;2023-04-01T03:30:05;1.30;;;0.93;;
75818;SDS011;64453;51.944;9.796;2023-04-01T03:32:35;2.90;;;0.90;;
75818;SDS011;64453;51.944;9.796;2023-04-01T03:35:04;2.77;;;1.00;;
75818;SDS011;64453;51.944;9.796;2023-04-01T03:37:32;0.57;;;0.57;;
75818;SDS011;64453;51.944;9.796;2023-04-01T03:39:59;1.23;;;0.73;;
75818;SDS011;64453;51.944;9.796;2023-04-01T03:42:26;0.60;;;0.60;;
75818;SDS011;64453;51.944;9.796;2023-04-01T03:44:55;0.70;;;0.50;;
75818;SDS011;64453;51.944;9.796;2023-04-01T03:47:22;2.30;;;0.80;;
75818;SDS011;64453;51.944;9.796;2023-04-01T03:49:49;1.33;;;0.63;;
75818;SDS011;64453;51.944;9.796;2023-04-01T03:52:17;1.30;;;0.87;;
75818;SDS011;64453;51.944;9.796;2023-04-01T03:54:44;0.83;;;0.50;;
75818;SDS011;64453;51.944;9.796;2023-04-01T03:57:11;1.10;;;0.90;;
75818;SDS011;64453;51.944;9.796;2023-04-01T03:59:38;2.80;;;0.77;;
75818;SDS011;64453;51.944;9.796;2023-04-01T04:02:09;1.60;;;1.10;;
75818;SDS011;64453;51.944;9.796;2023-04-01T04:04:36;1.23;;;0.80;;
75818;SDS011;64453;51.944;9.796;2023-04-01T04:07:03;1.27;;;0.70;;
75818;SDS011;64453;51.944;9.796;2023-04-01T04:09:31;0.80;;;0.60;;
75818;SDS011;64453;51.944;9.796;2023-04-01T04:11:58;3.03;;;0.90;;
75818;SDS011;64453;51.944;9.796;2023-04-01T04:14:25;1.37;;;0.80;;
75818;SDS011;64453;51.944;9.796;2023-04-01T04:16:53;0.80;;;0.60;;
75818;SDS011;64453;51.944;9.796;2023-04-01T04:19:22;1.13;;;0.90;;
75818;SDS011;64453;51.944;9.796;2023-04-01T04:21:50;1.47;;;0.93;;
75818;SDS011;64453;51.944;9.796;2023-04-01T04:24:17;1.30;;;0.83;;
75818;SDS011;64453;51.944;9.796;2023-04-01T04:26:45;1.70;;;0.70;;
75818;SDS011;64453;51.944;9.796;2023-04-01T04:29:12;1.03;;;0.90;;
75818;SDS011;64453;51.944;9.796;2023-04-01T04:31:39;2.20;;;1.23;;
75818;SDS011;64453;51.944;9.796;2023-04-01T04:34:06;1.17;;;0.87;;
75818;SDS011;64453;51.944;9.796;2023-04-01T04:36:35;4.13;;;1.27;;
75818;SDS011;64453;51.944;9.796;2023-04-01T04:39:02;3.43;;;1.00;;
75818;SDS011;64453;51.944;9.796;2023-04-01T04:41:29;3.03;;;1.20;;
75818;SDS011;64453;51.944;9.796;2023-04-01T04:43:57;1.20;;;0.80;;
75818;SDS011;64453;51.944;9.796;2023-04-01T04:46:25;0.70;;;0.70;;
75818;SDS011;64453;51.944;9.796;2023-04-01T04:48:52;2.17;;;1.00;;
75818;SDS011;64453;51.944;9.796;2023-04-01T04:51:19;1.47;;;1.10;;
75818;SDS011;64453;51.944;9.796;2023-04-01T04:53:49;1.30;;;1.20;;
75818;SDS011;64453;51.944;9.796;2023-04-01T04:56:18;6.37;;;1.20;;
75818;SDS011;64453;51.944;9.796;2023-04-01T04:58:46;2.10;;;1.20;;
75818;SDS011;64453;51.944;9.796;2023-04-01T05:01:15;2.27;;;1.00;;
75818;SDS011;64453;51.944;9.796;2023-04-01T05:03:44;1.13;;;1.00;;
75818;SDS011;64453;51.944;9.796;2023-04-01T05:06:12;6.27;;;1.30;;
75818;SDS011;64453;51.944;9.796;2023-04-01T05:08:41;2.63;;;1.20;;
75818;SDS011;64453;51.944;9.796;2023-04-01T05:11:11;2.57;;;1.20;;
75818;SDS011;64453;51.944;9.796;2023-04-01T05:13:41;2.03;;;1.13;;
75818;SDS011;64453;51.944;9.796;2023-04-01T05:16:09;2.20;;;1.30;;
75818;SDS011;64453;51.944;9.796;2023-04-01T05:18:37;1.00;;;0.93;;
75818;SDS011;64453;51.944;9.796;2023-04-01T05:21:06;2.47;;;0.93;;
75818;SDS011;64453;51.944;9.796;2023-04-01T05:23:34;1.57;;;1.20;;
75818;SDS011;64453;51.944;9.796;2023-04-01T05:26:03;3.10;;;1.40;;
75818;SDS011;64453;51.944;9.796;2023-04-01T05:28:32;1.23;;;1.03;;
75818;SDS011;64453;51.944;9.796;2023-04-01T05:30:59;1.97;;;1.00;;
75818;SDS011;64453;51.944;9.796;2023-04-01T05:33:29;1.73;;;1.40;;
75818;SDS011;64453;51.944;9.796;2023-04-01T05:36:05;1.47;;;1.20;;
75818;SDS011;64453;51.944;9.796;2023-04-01T05:38:34;1.70;;;0.93;;
75818;SDS011;64453;51.944;9.796;2023-04-01T05:41:01;1.00;;;0.90;;
75818;SDS011;64453;51.944;9.796;2023-04-01T05:43:29;2.37;;;1.20;;
75818;SDS011;64453;51.944;9.796;2023-04-01T05:45:57;2.13;;;1.20;;
75818;SDS011;64453;51.944;9.796;2023-04-01T05:48:25;1.77;;;1.20;;
75818;SDS011;64453;51.944;9.796;2023-04-01T05:50:53;2.83;;;1.10;;
75818;SDS011;64453;51.944;9.796;2023-04-01T05:53:20;3.00;;;1.30;;
75818;SDS011;64453;51.944;9.796;2023-04-01T05:55:48;1.67;;;1.37;;
75818;SDS011;64453;51.944;9.796;2023-04-01T05:58:16;2.13;;;1.50;;
75818;SDS011;64453;51.944;9.796;2023-04-01T06:00:43;2.20;;;1.07;;
75818;SDS011;64453;51.944;9.796;2023-04-01T06:03:13;1.13;;;0.93;;
75818;SDS011;64453;51.944;9.796;2023-04-01T06:05:40;2.27;;;0.97;;
75818;SDS011;64453;51.944;9.796;2023-04-01T06:08:10;1.80;;;0.93;;
75818;SDS011;64453;51.944;9.796;2023-04-01T06:10:55;0.83;;;0.80;;
75818;SDS011;64453;51.944;9.796;2023-04-01T06:13:45;1.50;;;1.13;;
75818;SDS011;64453;51.944;9.796;2023-04-01T06:16:31;1.10;;;1.00;;
75818;SDS011;64453;51.944;9.796;2023-04-01T06:19:23;1.87;;;1.10;;
75818;SDS011;64453;51.944;9.796;2023-04-01T06:22:03;1.50;;;1.07;;
75818;SDS011;64453;51.944;9.796;2023-04-01T06:25:15;1.90;;;1.03;;
75818;SDS011;64453;51.944;9.796;2023-04-01T06:27:59;1.60;;;1.10;;
75818;SDS011;64453;51.944;9.796;2023-04-01T06:30:43;2.60;;;1.10;;
75818;SDS011;64453;51.944;9.796;2023-04-01T06:33:17;1.90;;;1.17;;
75818;SDS011;64453;51.944;9.796;2023-04-01T06:39:14;2.00;;;0.90;;
75818;SDS011;64453;51.944;9.796;2023-04-01T06:42:02;3.27;;;0.90;;
75818;SDS011;64453;51.944;9.796;2023-04-01T06:44:49;1.40;;;0.60;;
75818;SDS011;64453;51.944;9.796;2023-04-01T06:47:31;1.77;;;1.57;;
75818;SDS011;64453;51.944;9.796;2023-04-01T06:50:11;1.27;;;1.03;;
75818;SDS011;64453;51.944;9.796;2023-04-01T06:52:52;2.63;;;0.90;;
75818;SDS011;64453;51.944;9.796;2023-04-01T06:55:32;1.70;;;0.87;;
75818;SDS011;64453;51.944;9.796;2023-04-01T06:58:06;1.57;;;0.70;;
75818;SDS011;64453;51.944;9.796;2023-04-01T07:00:42;2.20;;;1.23;;
75818;SDS011;64453;51.944;9.796;2023-04-01T07:03:14;2.27;;;1.10;;
75818;SDS011;64453;51.944;9.796;2023-04-01T07:05:48;1.27;;;0.90;;
75818;SDS011;64453;51.944;9.796;2023-04-01T07:08:16;1.70;;;0.97;;
75818;SDS011;64453;51.944;9.796;2023-04-01T07:10:50;1.70;;;0.80;;
75818;SDS011;64453;51.944;9.796;2023-04-01T07:13:20;0.93;;;0.77;;
75818;SDS011;64453;51.944;9.796;2023-04-01T07:15:56;0.80;;;0.80;;
75818;SDS011;64453;51.944;9.796;2023-04-01T07:18:32;1.60;;;0.70;;
75818;SDS011;64453;51.944;9.796;2023-04-01T07:21:07;2.20;;;0.90;;
75818;SDS011;64453;51.944;9.796;2023-04-01T07:23:50;0.90;;;0.50;;
75818;SDS011;64453;51.944;9.796;2023-04-01T07:26:23;0.50;;;0.50;;
75818;SDS011;64453;51.944;9.796;2023-04-01T07:28:52;0.73;;;0.60;;
75818;SDS011;64453;51.944;9.796;2023-04-01T07:31:23;0.80;;;0.53;;
75818;SDS011;64453;51.944;9.796;2023-04-01T07:34:15;0.67;;;0.50;;
75818;SDS011;64453;51.944;9.796;2023-04-01T07:36:52;0.60;;;0.60;;
75818;SDS011;64453;51.944;9.796;2023-04-01T07:39:29;0.53;;;0.43;;
75818;SDS011;64453;51.944;9.796;2023-04-01T07:42:07;1.40;;;0.47;;
75818;SDS011;64453;51.944;9.796;2023-04-01T07:44:44;0.60;;;0.50;;
75818;SDS011;64453;51.944;9.796;2023-04-01T07:47:24;1.43;;;0.60;;
75818;SDS011;64453;51.944;9.796;2023-04-01T07:50:11;4.20;;;0.90;;
75818;SDS011;64453;51.944;9.796;2023-04-01T07:52:47;1.20;;;0.60;;
75818;SDS011;64453;51.944;9.796;2023-04-01T07:55:26;0.87;;;0.60;;
75818;SDS011;64453;51.944;9.796;2023-04-01T07:58:02;0.80;;;0.63;;
75818;SDS011;64453;51.944;9.796;2023-04-01T08:00:38;1.23;;;0.70;;
75818;SDS011;64453;51.944;9.796;2023-04-01T08:03:26;0.60;;;0.57;;
75818;SDS011;64453;51.944;9.796;2023-04-01T08:06:03;0.50;;;0.40;;
75818;SDS011;64453;51.944;9.796;2023-04-01T08:08:41;1.13;;;0.40;;
75818;SDS011;64453;51.944;9.796;2023-04-01T08:11:22;4.90;;;3.97;;
75818;SDS011;64453;51.944;9.796;2023-04-01T08:14:03;3.50;;;2.63;;
75818;SDS011;64453;51.944;9.796;2023-04-01T08:16:40;1.40;;;1.20;;
75818;SDS011;64453;51.944;9.796;2023-04-01T08:19:15;1.40;;;0.60;;
75818;SDS011;64453;51.944;9.796;2023-04-01T08:21:54;0.40;;;0.40;;
75818;SDS011;64453;51.944;9.796;2023-04-01T08:24:32;0.60;;;0.60;;
75818;SDS011;64453;51.944;9.796;2023-04-01T08:27:06;0.70;;;0.60;;
75818;SDS011;64453;51.944;9.796;2023-04-01T08:29:46;0.70;;;0.70;;
75818;SDS011;64453;51.944;9.796;2023-04-01T08:32:19;2.60;;;0.70;;
75818;SDS011;64453;51.944;9.796;2023-04-01T08:34:54;0.90;;;0.60;;
75818;SDS011;64453;51.944;9.796;2023-04-01T08:37:35;0.50;;;0.40;;
75818;SDS011;64453;51.944;9.796;2023-04-01T08:40:14;2.20;;;0.37;;
75818;SDS011;64453;51.944;9.796;2023-04-01T08:43:06;1.07;;;0.60;;
75818;SDS011;64453;51.944;9.796;2023-04-01T08:46:04;1.03;;;0.60;;
75818;SDS011;64453;51.944;9.796;2023-04-01T08:49:10;0.57;;;0.47;;
75818;SDS011;64453;51.944;9.796;2023-04-01T08:51:55;3.10;;;0.70;;
75818;SDS011;64453;51.944;9.796;2023-04-01T08:54:55;0.80;;;0.60;;
75818;SDS011;64453;51.944;9.796;2023-04-01T08:58:01;0.70;;;0.50;;
75818;SDS011;64453;51.944;9.796;2023-04-01T09:01:03;0.80;;;0.60;;
75818;SDS011;64453;51.944;9.796;2023-04-01T09:03:57;0.40;;;0.40;;
75818;SDS011;64453;51.944;9.796;2023-04-01T09:06:39;0.90;;;0.40;;
75818;SDS011;64453;51.944;9.796;2023-04-01T09:09:21;1.03;;;0.50;;
75818;SDS011;64453;51.944;9.796;2023-04-01T09:21:51;0.50;;;0.50;;
75818;SDS011;64453;51.944;9.796;2023-04-01T09:25:06;0.80;;;0.40;;
75818;SDS011;64453;51.944;9.796;2023-04-01T09:28:02;0.63;;;0.63;;
75818;SDS011;64453;51.944;9.796;2023-04-01T09:30:47;0.80;;;0.70;;
75818;SDS011;64453;51.944;9.796;2023-04-01T09:33:53;0.70;;;0.50;;
75818;SDS011;64453;51.944;9.796;2023-04-01T09:36:45;2.80;;;2.00;;
75818;SDS011;64453;51.944;9.796;2023-04-01T09:39:25;0.77;;;0.70;;
75818;SDS011;64453;51.944;9.796;2023-04-01T09:42:21;1.57;;;0.40;;
75818;SDS011;64453;51.944;9.796;2023-04-01T09:45:09;1.13;;;0.53;;
75818;SDS011;64453;51.944;9.796;2023-04-01T09:47:55;1.90;;;0.77;;
75818;SDS011;64453;51.944;9.796;2023-04-01T09:50:41;2.10;;;1.73;;
75818;SDS011;64453;51.944;9.796;2023-04-01T09:53:20;0.90;;;0.80;;
75818;SDS011;64453;51.944;9.796;2023-04-01T09:56:18;0.50;;;0.43;;
75818;SDS011;64453;51.944;9.796;2023-04-01T09:59:43;1.40;;;1.40;;
75818;SDS011;64453;51.944;9.796;2023-04-01T10:09:40;0.70;;;0.60;;
75818;SDS011;64453;51.944;9.796;2023-04-01T10:12:50;0.40;;;0.40;;
75818;SDS011;64453;51.944;9.796;2023-04-01T10:15:59;0.53;;;0.50;;
75818;SDS011;64453;51.944;9.796;2023-04-01T10:25:31;0.87;;;0.87;;
75818;SDS011;64453;51.944;9.796;2023-04-01T10:28:35;1.07;;;0.60;;
75818;SDS011;64453;51.944;9.796;2023-04-01T10:34:49;2.50;;;0.77;;
75818;SDS011;64453;51.944;9.796;2023-04-01T10:41:29;1.77;;;1.33;;
75818;SDS011;64453;51.944;9.796;2023-04-01T10:44:27;1.23;;;1.17;;
75818;SDS011;64453;51.944;9.796;2023-04-01T10:51:12;1.80;;;1.70;;
75818;SDS011;64453;51.944;9.796;2023-04-01T10:53:49;0.90;;;0.70;;
75818;SDS011;64453;51.944;9.796;2023-04-01T10:56:51;2.03;;;1.90;;
75818;SDS011;64453;51.944;9.796;2023-04-01T10:59:28;2.30;;;2.10;;
75818;SDS011;64453;51.944;9.796;2023-04-01T11:05:54;0.70;;;0.63;;
75818;SDS011;64453;51.944;9.796;2023-04-01T11:09:09;0.90;;;0.70;;
75818;SDS011;64453;51.944;9.796;2023-04-01T11:12:10;2.07;;;1.97;;
75818;SDS011;64453;51.944;9.796;2023-04-01T11:15:32;2.20;;;2.10;;
75818;SDS011;64453;51.944;9.796;2023-04-01T11:21:42;1.50;;;1.50;;
75818;SDS011;64453;51.944;9.796;2023-04-01T11:24:26;0.63;;;0.63;;
75818;SDS011;64453;51.944;9.796;2023-04-01T11:27:33;1.20;;;1.20;;
75818;SDS011;64453;51.944;9.796;2023-04-01T11:30:22;0.93;;;0.93;;
75818;SDS011;64453;51.944;9.796;2023-04-01T11:33:07;1.10;;;1.10;;
75818;SDS011;64453;51.944;9.796;2023-04-01T11:35:52;0.70;;;0.70;;
75818;SDS011;64453;51.944;9.796;2023-04-01T11:38:35;0.63;;;0.63;;
75818;SDS011;64453;51.944;9.796;2023-04-01T11:41:33;1.60;;;1.10;;
75818;SDS011;64453;51.944;9.796;2023-04-01T11:44:11;0.70;;;0.70;;
75818;SDS011;64453;51.944;9.796;2023-04-01T11:46:47;1.63;;;1.57;;
75818;SDS011;64453;51.944;9.796;2023-04-01T11:52:33;1.47;;;1.37;;
75818;SDS011;64453;51.944;9.796;2023-04-01T11:55:35;1.43;;;1.23;;
75818;SDS011;64453;51.944;9.796;2023-04-01T11:58:29;0.70;;;0.70;;
75818;SDS011;64453;51.944;9.796;2023-04-01T12:01:17;1.23;;;0.60;;
75818;SDS011;64453;51.944;9.796;2023-04-01T12:07:24;1.80;;;1.70;;
75818;SDS011;64453;51.944;9.796;2023-04-01T12:10:13;2.80;;;2.60;;
75818;SDS011;64453;51.944;9.796;2023-04-01T12:12:46;1.43;;;1.33;;
75818;SDS011;64453;51.944;9.796;2023-04-01T12:15:23;1.23;;;0.97;;
75818;SDS011;64453;51.944;9.796;2023-04-01T12:18:03;0.70;;;0.50;;
75818;SDS011;64453;51.944;9.796;2023-04-01T12:20:43;0.80;;;0.80;;
75818;SDS011;64453;51.944;9.796;2023-04-01T12:23:32;2.03;;;1.93;;
75818;SDS011;64453;51.944;9.796;2023-04-01T12:26:27;1.30;;;1.30;;
75818;SDS011;64453;51.944;9.796;2023-04-01T12:29:34;2.03;;;1.93;;
75818;SDS011;64453;51.944;9.796;2023-04-01T12:32:17;4.83;;;4.53;;
75818;SDS011;64453;51.944;9.796;2023-04-01T12:35:02;5.10;;;4.70;;
75818;SDS011;64453;51.944;9.796;2023-04-01T12:37:45;3.20;;;3.10;;
75818;SDS011;64453;51.944;9.796;2023-04-01T12:40:40;1.80;;;1.70;;
75818;SDS011;64453;51.944;9.796;2023-04-01T12:43:33;1.70;;;1.70;;
75818;SDS011;64453;51.944;9.796;2023-04-01T12:46:19;1.50;;;1.30;;
75818;SDS011;64453;51.944;9.796;2023-04-01T12:48:59;0.70;;;0.70;;
75818;SDS011;64453;51.944;9.796;2023-04-01T12:51:45;0.53;;;0.53;;
75818;SDS011;64453;51.944;9.796;2023-04-01T13:04:29;0.40;;;0.40;;
75818;SDS011;64453;51.944;9.796;2023-04-01T13:07:45;0.80;;;0.70;;
75818;SDS011;64453;51.944;9.796;2023-04-01T13:10:31;0.83;;;0.63;;
75818;SDS011;64453;51.944;9.796;2023-04-01T13:13:20;2.43;;;2.33;;
75818;SDS011;64453;51.944;9.796;2023-04-01T13:16:20;0.63;;;0.63;;
75818;SDS011;64453;51.944;9.796;2023-04-01T13:18:53;0.57;;;0.57;;
75818;SDS011;64453;51.944;9.796;2023-04-01T13:21:28;2.33;;;2.23;;
75818;SDS011;64453;51.944;9.796;2023-04-01T13:24:09;1.00;;;1.00;;
75818;SDS011;64453;51.944;9.796;2023-04-01T13:26:53;0.60;;;0.60;;
75818;SDS011;64453;51.944;9.796;2023-04-01T13:29:27;1.33;;;1.33;;
75818;SDS011;64453;51.944;9.796;2023-04-01T13:32:05;1.23;;;1.23;;
75818;SDS011;64453;51.944;9.796;2023-04-01T13:34:48;2.20;;;1.00;;
75818;SDS011;64453;51.944;9.796;2023-04-01T13:37:32;0.50;;;0.50;;
75818;SDS011;64453;51.944;9.796;2023-04-01T13:40:25;3.10;;;2.90;;
75818;SDS011;64453;51.944;9.796;2023-04-01T13:43:08;1.33;;;1.27;;
75818;SDS011;64453;51.944;9.796;2023-04-01T13:45:43;1.77;;;1.67;;
75818;SDS011;64453;51.944;9.796;2023-04-01T13:48:45;0.77;;;0.77;;
75818;SDS011;64453;51.944;9.796;2023-04-01T13:57:58;1.50;;;1.40;;
75818;SDS011;64453;51.944;9.796;2023-04-01T14:01:05;0.80;;;0.80;;
75818;SDS011;64453;51.944;9.796;2023-04-01T14:03:38;1.50;;;0.70;;
75818;SDS011;64453;51.944;9.796;2023-04-01T14:06:31;1.33;;;1.30;;
75818;SDS011;64453;51.944;9.796;2023-04-01T14:09:13;4.10;;;0.83;;
75818;SDS011;64453;51.944;9.796;2023-04-01T14:11:56;1.00;;;1.00;;
75818;SDS011;64453;51.944;9.796;2023-04-01T14:14:36;1.23;;;1.23;;
75818;SDS011;64453;51.944;9.796;2023-04-01T14:17:22;3.30;;;3.00;;
75818;SDS011;64453;51.944;9.796;2023-04-01T14:20:14;2.33;;;2.13;;
75818;SDS011;64453;51.944;9.796;2023-04-01T14:23:03;0.90;;;0.90;;
75818;SDS011;64453;51.944;9.796;2023-04-01T14:28:51;0.40;;;0.40;;
75818;SDS011;64453;51.944;9.796;2023-04-01T14:31:38;0.90;;;0.70;;
75818;SDS011;64453;51.944;9.796;2023-04-01T14:34:20;1.07;;;1.07;;
75818;SDS011;64453;51.944;9.796;2023-04-01T14:37:01;1.20;;;1.20;;
75818;SDS011;64453;51.944;9.796;2023-04-01T14:42:55;0.90;;;0.90;;
75818;SDS011;64453;51.944;9.796;2023-04-01T14:45:46;0.80;;;0.80;;
75818;SDS011;64453;51.944;9.796;2023-04-01T14:48:31;1.03;;;1.00;;
75818;SDS011;64453;51.944;9.796;2023-04-01T14:51:09;1.30;;;1.30;;
75818;SDS011;64453;51.944;9.796;2023-04-01T14:53:43;3.40;;;3.23;;
75818;SDS011;64453;51.944;9.796;2023-04-01T14:56:34;1.40;;;1.30;;
75818;SDS011;64453;51.944;9.796;2023-04-01T14:59:04;1.63;;;1.30;;
75818;SDS011;64453;51.944;9.796;2023-04-01T15:01:54;1.20;;;1.07;;
75818;SDS011;64453;51.944;9.796;2023-04-01T15:04:39;7.70;;;7.10;;
75818;SDS011;64453;51.944;9.796;2023-04-01T15:07:20;8.90;;;8.10;;
75818;SDS011;64453;51.944;9.796;2023-04-01T15:10:14;15.10;;;13.70;;
75818;SDS011;64453;51.944;9.796;2023-04-01T15:13:04;6.93;;;6.40;;
75818;SDS011;64453;51.944;9.796;2023-04-01T15:15:44;3.70;;;1.83;;
75818;SDS011;64453;51.944;9.796;2023-04-01T15:18:32;1.43;;;1.00;;
75818;SDS011;64453;51.944;9.796;2023-04-01T15:21:11;2.10;;;2.00;;
75818;SDS011;64453;51.944;9.796;2023-04-01T15:23:51;5.37;;;3.20;;
75818;SDS011;64453;51.944;9.796;2023-04-01T15:26:42;4.40;;;4.00;;
75818;SDS011;64453;51.944;9.796;2023-04-01T15:32:30;6.30;;;5.70;;
75818;SDS011;64453;51.944;9.796;2023-04-01T15:35:14;8.67;;;8.07;;
75818;SDS011;64453;51.944;9.796;2023-04-01T15:37:54;6.57;;;6.17;;
75818;SDS011;64453;51.944;9.796;2023-04-01T15:40:24;2.90;;;2.80;;
75818;SDS011;64453;51.944;9.796;2023-04-01T15:43:05;1.70;;;1.60;;
75818;SDS011;64453;51.944;9.796;2023-04-01T15:45:49;1.20;;;1.20;;
75818;SDS011;64453;51.944;9.796;2023-04-01T15:48:31;1.90;;;1.80;;
75818;SDS011;64453;51.944;9.796;2023-04-01T15:54:23;2.67;;;2.47;;
75818;SDS011;64453;51.944;9.796;2023-04-01T15:57:20;1.30;;;1.20;;
75818;SDS011;64453;51.944;9.796;2023-04-01T16:00:11;0.67;;;0.67;;
75818;SDS011;64453;51.944;9.796;2023-04-01T16:02:51;0.60;;;0.60;;
75818;SDS011;64453;51.944;9.796;2023-04-01T16:05:42;2.20;;;0.70;;
75818;SDS011;64453;51.944;9.796;2023-04-01T16:11:37;0.70;;;0.70;;
75818;SDS011;64453;51.944;9.796;2023-04-01T16:14:19;0.70;;;0.70;;
75818;SDS011;64453;51.944;9.796;2023-04-01T16:17:04;1.37;;;0.80;;
75818;SDS011;64453;51.944;9.796;2023-04-01T16:19:47;1.10;;;1.10;;
75818;SDS011;64453;51.944;9.796;2023-04-01T16:22:19;1.30;;;1.20;;
75818;SDS011;64453;51.944;9.796;2023-04-01T16:24:55;1.00;;;1.00;;
75818;SDS011;64453;51.944;9.796;2023-04-01T16:27:45;1.23;;;1.20;;
75818;SDS011;64453;51.944;9.796;2023-04-01T16:30:23;3.50;;;3.30;;
75818;SDS011;64453;51.944;9.796;2023-04-01T16:33:01;3.50;;;3.30;;
75818;SDS011;64453;51.944;9.796;2023-04-01T16:35:35;1.30;;;1.30;;
75818;SDS011;64453;51.944;9.796;2023-04-01T16:38:11;3.10;;;2.90;;
75818;SDS011;64453;51.944;9.796;2023-04-01T16:40:50;8.53;;;7.83;;
75818;SDS011;64453;51.944;9.796;2023-04-01T16:43:35;4.00;;;3.70;;
75818;SDS011;64453;51.944;9.796;2023-04-01T16:49:04;3.40;;;3.20;;
75818;SDS011;64453;51.944;9.796;2023-04-01T16:51:48;2.93;;;2.73;;
75818;SDS011;64453;51.944;9.796;2023-04-01T16:54:26;3.63;;;3.43;;
75818;SDS011;64453;51.944;9.796;2023-04-01T16:57:03;2.80;;;2.70;;
75818;SDS011;64453;51.944;9.796;2023-04-01T16:59:44;2.00;;;2.00;;
75818;SDS011;64453;51.944;9.796;2023-04-01T17:02:17;2.50;;;2.40;;
75818;SDS011;64453;51.944;9.796;2023-04-01T17:04:52;2.60;;;2.50;;
75818;SDS011;64453;51.944;9.796;2023-04-01T17:07:27;2.47;;;2.37;;
75818;SDS011;64453;51.944;9.796;2023-04-01T17:13:14;3.20;;;3.00;;
75818;SDS011;64453;51.944;9.796;2023-04-01T17:15:59;3.80;;;3.60;;
75818;SDS011;64453;51.944;9.796;2023-04-01T17:18:42;2.77;;;2.67;;
75818;SDS011;64453;51.944;9.796;2023-04-01T17:21:17;2.73;;;2.63;;
75818;SDS011;64453;51.944;9.796;2023-04-01T17:24:06;2.20;;;2.10;;
75818;SDS011;64453;51.944;9.796;2023-04-01T17:26:52;2.73;;;2.63;;
75818;SDS011;64453;51.944;9.796;2023-04-01T17:29:33;2.10;;;2.00;;